Missouri River (Missouri), Waverly (06895500)

StateMissouriLatestUnknown (40400 cfs)
RiverMissouri RiverRatingObservedEstimated
Updated2022-09-25 22:00 (33 minutes ago)Flood - The river is flooding. Obstacles can be treacherous or deadly. The river should be avoided at this stage for casual trips and definitely for the inexperienced. Trips should be attempted only with protective gear and equipment.Flood(none)(none)
Discharge40400 cfs (median: 52600 cfs)High - The river is high and potentially dangerous, especially for the young and / or inexperienced. Normal stream obstacles are sometimes difficult to navigate. Extended distances can be attempted, but canoe travel may not be advisable.High(none)(none)
Height10.24 feetGood - Conditions are ideal for a canoe or kayak. Boats typically will drag on fewer than one-quarter of riffles, if at all, and portages are unnecessary or rare. Normal float lengths can be attempted without a problem.Good(none)(none)
TrendRising (rising over 24 hours)Low - River is low but can still be floated. Some riffles are okay but most come with significant dragging and might need a portage. Float lengths should be reduced to accommodate low flow, dragging, and portages.Low(none)(none)
USGSExternal icon USGS Site (External icon Duck Duck Go Maps)Poor - River is too low to float comfortably. Most or all riffles will drag or must be portaged and some obstacles (such as slick shelf rock) cause undue problems. Avoid the river at this stage for casual paddling trips.Poor(none)(none)

Trending Data

Plot Image

Trips for Missouri River (Missouri), Waverly (06895500)

DateStartEndDistanceConditionDischargeHeightFishingDetails

A total of 0 rows are displayed.

Condition Descriptions

Fishing Conditions

Fish Species

Notes

Classic Trip List

The classic River Trips application is still available for use. It is updated with the new system using a data retrofit. It is no longer maintained. The original River Trips application is no longer updated (as of 1 Dec 2016) but can be checked for errors or for the condition of the data before it was converted to the new system.

Gauge Data Table

ObservationHeightDischargeMaximum
Discharge
Minimum
Discharge
Mean
Discharge
P05P10P20P25P50
(Median)
P75P80P90P95
2022-09-25 22:00 10.24 40400 159000 (1993) 34800 (1991) 64100 36400 38400 40900 42200 52600 74000 84800 114000 134000
2022-09-25 21:00 10.23 40300 159000 (1993) 34800 (1991) 64100 36400 38400 40900 42200 52600 74000 84800 114000 134000
2022-09-25 20:00 10.22 40300 159000 (1993) 34800 (1991) 64100 36400 38400 40900 42200 52600 74000 84800 114000 134000
2022-09-25 19:00 10.24 40400 159000 (1993) 34800 (1991) 64100 36400 38400 40900 42200 52600 74000 84800 114000 134000
2022-09-25 18:00 10.19 40100 159000 (1993) 34800 (1991) 64100 36400 38400 40900 42200 52600 74000 84800 114000 134000
2022-09-25 17:00 10.16 40000 159000 (1993) 34800 (1991) 64100 36400 38400 40900 42200 52600 74000 84800 114000 134000
2022-09-25 16:00 10.17 40000 159000 (1993) 34800 (1991) 64100 36400 38400 40900 42200 52600 74000 84800 114000 134000
2022-09-25 15:00 10.17 40000 159000 (1993) 34800 (1991) 64100 36400 38400 40900 42200 52600 74000 84800 114000 134000
2022-09-25 14:00 10.07 39500 159000 (1993) 34800 (1991) 64100 36400 38400 40900 42200 52600 74000 84800 114000 134000
2022-09-25 13:00 10.12 39700 159000 (1993) 34800 (1991) 64100 36400 38400 40900 42200 52600 74000 84800 114000 134000
2022-09-25 12:00 10.11 39700 159000 (1993) 34800 (1991) 64100 36400 38400 40900 42200 52600 74000 84800 114000 134000
2022-09-25 11:00 10.16 40000 159000 (1993) 34800 (1991) 64100 36400 38400 40900 42200 52600 74000 84800 114000 134000
2022-09-25 10:00 10.21 40200 159000 (1993) 34800 (1991) 64100 36400 38400 40900 42200 52600 74000 84800 114000 134000
2022-09-25 09:00 10.21 40200 159000 (1993) 34800 (1991) 64100 36400 38400 40900 42200 52600 74000 84800 114000 134000
2022-09-25 08:00 10.16 40000 159000 (1993) 34800 (1991) 64100 36400 38400 40900 42200 52600 74000 84800 114000 134000
2022-09-25 07:00 10.24 40400 159000 (1993) 34800 (1991) 64100 36400 38400 40900 42200 52600 74000 84800 114000 134000
2022-09-25 06:00 10.23 40300 159000 (1993) 34800 (1991) 64100 36400 38400 40900 42200 52600 74000 84800 114000 134000
2022-09-25 05:00 10.23 40300 159000 (1993) 34800 (1991) 64100 36400 38400 40900 42200 52600 74000 84800 114000 134000
2022-09-25 04:00 10.23 40300 159000 (1993) 34800 (1991) 64100 36400 38400 40900 42200 52600 74000 84800 114000 134000
2022-09-25 03:00 10.23 40300 159000 (1993) 34800 (1991) 64100 36400 38400 40900 42200 52600 74000 84800 114000 134000
2022-09-25 02:00 10.23 40300 159000 (1993) 34800 (1991) 64100 36400 38400 40900 42200 52600 74000 84800 114000 134000
2022-09-25 01:00 10.23 40300 159000 (1993) 34800 (1991) 64100 36400 38400 40900 42200 52600 74000 84800 114000 134000
2022-09-25 00:00 10.23 40300 159000 (1993) 34800 (1991) 64100 36400 38400 40900 42200 52600 74000 84800 114000 134000
2022-09-24 23:00 10.24 40400 172000 (1965) 35000 (1991) 63700 36400 38200 41200 41900 51400 75000 76500 113000 157000
2022-09-24 22:00 10.24 40400 172000 (1965) 35000 (1991) 63700 36400 38200 41200 41900 51400 75000 76500 113000 157000
2022-09-24 21:00 10.22 40300 172000 (1965) 35000 (1991) 63700 36400 38200 41200 41900 51400 75000 76500 113000 157000
2022-09-24 20:00 10.25 40400 172000 (1965) 35000 (1991) 63700 36400 38200 41200 41900 51400 75000 76500 113000 157000
2022-09-24 19:00 10.23 40300 172000 (1965) 35000 (1991) 63700 36400 38200 41200 41900 51400 75000 76500 113000 157000
2022-09-24 18:00 10.25 40400 172000 (1965) 35000 (1991) 63700 36400 38200 41200 41900 51400 75000 76500 113000 157000
2022-09-24 17:00 10.24 40400 172000 (1965) 35000 (1991) 63700 36400 38200 41200 41900 51400 75000 76500 113000 157000
2022-09-24 16:00 10.27 40500 172000 (1965) 35000 (1991) 63700 36400 38200 41200 41900 51400 75000 76500 113000 157000
2022-09-24 15:00 10.27 40500 172000 (1965) 35000 (1991) 63700 36400 38200 41200 41900 51400 75000 76500 113000 157000
2022-09-24 14:00 10.28 40600 172000 (1965) 35000 (1991) 63700 36400 38200 41200 41900 51400 75000 76500 113000 157000
2022-09-24 13:00 10.29 40600 172000 (1965) 35000 (1991) 63700 36400 38200 41200 41900 51400 75000 76500 113000 157000
2022-09-24 12:00 10.29 40600 172000 (1965) 35000 (1991) 63700 36400 38200 41200 41900 51400 75000 76500 113000 157000
2022-09-24 11:00 10.29 40600 172000 (1965) 35000 (1991) 63700 36400 38200 41200 41900 51400 75000 76500 113000 157000
2022-09-24 10:00 10.28 40600 172000 (1965) 35000 (1991) 63700 36400 38200 41200 41900 51400 75000 76500 113000 157000
2022-09-24 09:00 10.27 40500 172000 (1965) 35000 (1991) 63700 36400 38200 41200 41900 51400 75000 76500 113000 157000
2022-09-24 08:00 10.29 40600 172000 (1965) 35000 (1991) 63700 36400 38200 41200 41900 51400 75000 76500 113000 157000
2022-09-24 07:00 10.30 40700 172000 (1965) 35000 (1991) 63700 36400 38200 41200 41900 51400 75000 76500 113000 157000
2022-09-24 06:00 10.31 40700 172000 (1965) 35000 (1991) 63700 36400 38200 41200 41900 51400 75000 76500 113000 157000
2022-09-24 05:00 10.32 40800 172000 (1965) 35000 (1991) 63700 36400 38200 41200 41900 51400 75000 76500 113000 157000
2022-09-24 04:00 10.32 40800 172000 (1965) 35000 (1991) 63700 36400 38200 41200 41900 51400 75000 76500 113000 157000
2022-09-24 03:00 10.32 40800 172000 (1965) 35000 (1991) 63700 36400 38200 41200 41900 51400 75000 76500 113000 157000
2022-09-24 02:00 10.32 40800 172000 (1965) 35000 (1991) 63700 36400 38200 41200 41900 51400 75000 76500 113000 157000
2022-09-24 01:00 10.32 40800 172000 (1965) 35000 (1991) 63700 36400 38200 41200 41900 51400 75000 76500 113000 157000
2022-09-24 00:00 10.31 40700 172000 (1965) 35000 (1991) 63700 36400 38200 41200 41900 51400 75000 76500 113000 157000
2022-09-23 23:00 10.32 40800 202000 (1965) 35100 (1991) 63400 36400 38000 41000 41600 51000 71500 77300 122000 136000
2022-09-23 22:00 10.30 40700 202000 (1965) 35100 (1991) 63400 36400 38000 41000 41600 51000 71500 77300 122000 136000
2022-09-23 21:00 10.29 40600 202000 (1965) 35100 (1991) 63400 36400 38000 41000 41600 51000 71500 77300 122000 136000
2022-09-23 20:00 10.32 40800 202000 (1965) 35100 (1991) 63400 36400 38000 41000 41600 51000 71500 77300 122000 136000
2022-09-23 19:00 10.25 40400 202000 (1965) 35100 (1991) 63400 36400 38000 41000 41600 51000 71500 77300 122000 136000
2022-09-23 18:00 10.17 40000 202000 (1965) 35100 (1991) 63400 36400 38000 41000 41600 51000 71500 77300 122000 136000
2022-09-23 17:00 10.20 40200 202000 (1965) 35100 (1991) 63400 36400 38000 41000 41600 51000 71500 77300 122000 136000
2022-09-23 16:00 10.18 40100 202000 (1965) 35100 (1991) 63400 36400 38000 41000 41600 51000 71500 77300 122000 136000
2022-09-23 15:00 10.18 40100 202000 (1965) 35100 (1991) 63400 36400 38000 41000 41600 51000 71500 77300 122000 136000
2022-09-23 14:00 10.20 40200 202000 (1965) 35100 (1991) 63400 36400 38000 41000 41600 51000 71500 77300 122000 136000
2022-09-23 13:00 10.20 40200 202000 (1965) 35100 (1991) 63400 36400 38000 41000 41600 51000 71500 77300 122000 136000
2022-09-23 12:00 10.20 40200 202000 (1965) 35100 (1991) 63400 36400 38000 41000 41600 51000 71500 77300 122000 136000
2022-09-23 11:00 10.21 40200 202000 (1965) 35100 (1991) 63400 36400 38000 41000 41600 51000 71500 77300 122000 136000
2022-09-23 10:00 10.18 40100 202000 (1965) 35100 (1991) 63400 36400 38000 41000 41600 51000 71500 77300 122000 136000
2022-09-23 09:00 10.22 40300 202000 (1965) 35100 (1991) 63400 36400 38000 41000 41600 51000 71500 77300 122000 136000
2022-09-23 08:00 10.26 40500 202000 (1965) 35100 (1991) 63400 36400 38000 41000 41600 51000 71500 77300 122000 136000
2022-09-23 07:00 10.27 40500 202000 (1965) 35100 (1991) 63400 36400 38000 41000 41600 51000 71500 77300 122000 136000
2022-09-23 06:00 10.19 40100 202000 (1965) 35100 (1991) 63400 36400 38000 41000 41600 51000 71500 77300 122000 136000
2022-09-23 05:00 10.22 40300 202000 (1965) 35100 (1991) 63400 36400 38000 41000 41600 51000 71500 77300 122000 136000
2022-09-23 04:00 10.21 40200 202000 (1965) 35100 (1991) 63400 36400 38000 41000 41600 51000 71500 77300 122000 136000
2022-09-23 03:00 10.24 40400 202000 (1965) 35100 (1991) 63400 36400 38000 41000 41600 51000 71500 77300 122000 136000
2022-09-23 02:00 10.26 40500 202000 (1965) 35100 (1991) 63400 36400 38000 41000 41600 51000 71500 77300 122000 136000
2022-09-23 01:00 10.25 40400 202000 (1965) 35100 (1991) 63400 36400 38000 41000 41600 51000 71500 77300 122000 136000
2022-09-23 00:00 10.25 40400 202000 (1965) 35100 (1991) 63400 36400 38000 41000 41600 51000 71500 77300 122000 136000
2022-09-22 23:00 10.24 40400 193000 (1965) 35400 (1991) 61800 36200 38500 40600 41600 50300 70900 74500 110000 128000
2022-09-22 22:00 10.25 40400 193000 (1965) 35400 (1991) 61800 36200 38500 40600 41600 50300 70900 74500 110000 128000
2022-09-22 21:00 10.24 40400 193000 (1965) 35400 (1991) 61800 36200 38500 40600 41600 50300 70900 74500 110000 128000
2022-09-22 20:00 10.23 40300 193000 (1965) 35400 (1991) 61800 36200 38500 40600 41600 50300 70900 74500 110000 128000
2022-09-22 19:00 10.13 39800 193000 (1965) 35400 (1991) 61800 36200 38500 40600 41600 50300 70900 74500 110000 128000
2022-09-22 18:00 10.16 40000 193000 (1965) 35400 (1991) 61800 36200 38500 40600 41600 50300 70900 74500 110000 128000
2022-09-22 17:00 10.10 39600 193000 (1965) 35400 (1991) 61800 36200 38500 40600 41600 50300 70900 74500 110000 128000
2022-09-22 16:00 10.06 39400 193000 (1965) 35400 (1991) 61800 36200 38500 40600 41600 50300 70900 74500 110000 128000
2022-09-22 15:00 10.11 39700 193000 (1965) 35400 (1991) 61800 36200 38500 40600 41600 50300 70900 74500 110000 128000
2022-09-22 14:00 10.18 40100 193000 (1965) 35400 (1991) 61800 36200 38500 40600 41600 50300 70900 74500 110000 128000
2022-09-22 13:00 10.11 39700 193000 (1965) 35400 (1991) 61800 36200 38500 40600 41600 50300 70900 74500 110000 128000
2022-09-22 12:00 10.14 39800 193000 (1965) 35400 (1991) 61800 36200 38500 40600 41600 50300 70900 74500 110000 128000
2022-09-22 11:00 10.11 39700 193000 (1965) 35400 (1991) 61800 36200 38500 40600 41600 50300 70900 74500 110000 128000
2022-09-22 10:00 10.16 40000 193000 (1965) 35400 (1991) 61800 36200 38500 40600 41600 50300 70900 74500 110000 128000
2022-09-22 09:00 10.23 40300 193000 (1965) 35400 (1991) 61800 36200 38500 40600 41600 50300 70900 74500 110000 128000
2022-09-22 08:00 10.23 40300 193000 (1965) 35400 (1991) 61800 36200 38500 40600 41600 50300 70900 74500 110000 128000
2022-09-22 07:00 10.22 40300 193000 (1965) 35400 (1991) 61800 36200 38500 40600 41600 50300 70900 74500 110000 128000
2022-09-22 06:00 10.22 40300 193000 (1965) 35400 (1991) 61800 36200 38500 40600 41600 50300 70900 74500 110000 128000
2022-09-22 05:00 10.22 40300 193000 (1965) 35400 (1991) 61800 36200 38500 40600 41600 50300 70900 74500 110000 128000
2022-09-22 04:00 10.22 40300 193000 (1965) 35400 (1991) 61800 36200 38500 40600 41600 50300 70900 74500 110000 128000
2022-09-22 03:00 10.22 40300 193000 (1965) 35400 (1991) 61800 36200 38500 40600 41600 50300 70900 74500 110000 128000
2022-09-22 02:00 10.22 40300 193000 (1965) 35400 (1991) 61800 36200 38500 40600 41600 50300 70900 74500 110000 128000
2022-09-22 01:00 10.21 40200 193000 (1965) 35400 (1991) 61800 36200 38500 40600 41600 50300 70900 74500 110000 128000
2022-09-22 00:00 10.21 40200 193000 (1965) 35400 (1991) 61800 36200 38500 40600 41600 50300 70900 74500 110000 128000
2022-09-21 23:00 10.21 40200 137000 (2019) 35300 (1991) 60100 36700 38300 40200 42000 50800 70500 73700 105000 124000
2022-09-21 22:00 10.21 40200 137000 (2019) 35300 (1991) 60100 36700 38300 40200 42000 50800 70500 73700 105000 124000
2022-09-21 21:00 10.20 40200 137000 (2019) 35300 (1991) 60100 36700 38300 40200 42000 50800 70500 73700 105000 124000
2022-09-21 20:00 10.21 40200 137000 (2019) 35300 (1991) 60100 36700 38300 40200 42000 50800 70500 73700 105000 124000
2022-09-21 19:00 10.20 40200 137000 (2019) 35300 (1991) 60100 36700 38300 40200 42000 50800 70500 73700 105000 124000
2022-09-21 18:00 10.20 40200 137000 (2019) 35300 (1991) 60100 36700 38300 40200 42000 50800 70500 73700 105000 124000
2022-09-21 17:00 10.19 40100 137000 (2019) 35300 (1991) 60100 36700 38300 40200 42000 50800 70500 73700 105000 124000
2022-09-21 16:00 10.15 39900 137000 (2019) 35300 (1991) 60100 36700 38300 40200 42000 50800 70500 73700 105000 124000
2022-09-21 15:00 10.18 40100 137000 (2019) 35300 (1991) 60100 36700 38300 40200 42000 50800 70500 73700 105000 124000
2022-09-21 14:00 10.18 40100 137000 (2019) 35300 (1991) 60100 36700 38300 40200 42000 50800 70500 73700 105000 124000
2022-09-21 13:00 10.12 38400 137000 (2019) 35300 (1991) 60100 36700 38300 40200 42000 50800 70500 73700 105000 124000
2022-09-21 12:00 10.19 38800 137000 (2019) 35300 (1991) 60100 36700 38300 40200 42000 50800 70500 73700 105000 124000
2022-09-21 11:00 10.18 38700 137000 (2019) 35300 (1991) 60100 36700 38300 40200 42000 50800 70500 73700 105000 124000
2022-09-21 10:00 10.15 38600 137000 (2019) 35300 (1991) 60100 36700 38300 40200 42000 50800 70500 73700 105000 124000
2022-09-21 09:00 10.18 38700 137000 (2019) 35300 (1991) 60100 36700 38300 40200 42000 50800 70500 73700 105000 124000
2022-09-21 08:00 10.17 38700 137000 (2019) 35300 (1991) 60100 36700 38300 40200 42000 50800 70500 73700 105000 124000
2022-09-21 07:00 10.16 38600 137000 (2019) 35300 (1991) 60100 36700 38300 40200 42000 50800 70500 73700 105000 124000
2022-09-21 06:00 10.16 38600 137000 (2019) 35300 (1991) 60100 36700 38300 40200 42000 50800 70500 73700 105000 124000
2022-09-21 05:00 10.17 38700 137000 (2019) 35300 (1991) 60100 36700 38300 40200 42000 50800 70500 73700 105000 124000
2022-09-21 04:00 10.16 38600 137000 (2019) 35300 (1991) 60100 36700 38300 40200 42000 50800 70500 73700 105000 124000
2022-09-21 03:00 10.15 38600 137000 (2019) 35300 (1991) 60100 36700 38300 40200 42000 50800 70500 73700 105000 124000
2022-09-21 02:00 10.14 38500 137000 (2019) 35300 (1991) 60100 36700 38300 40200 42000 50800 70500 73700 105000 124000
2022-09-21 01:00 10.14 38500 137000 (2019) 35300 (1991) 60100 36700 38300 40200 42000 50800 70500 73700 105000 124000
2022-09-21 00:00 10.14 38500 137000 (2019) 35300 (1991) 60100 36700 38300 40200 42000 50800 70500 73700 105000 124000
2022-09-20 23:00 10.14 38500 135000 (2019) 35700 (1991) 58900 37500 38200 40400 41600 50300 70600 75500 97500 113000
2022-09-20 22:00 10.13 38500 135000 (2019) 35700 (1991) 58900 37500 38200 40400 41600 50300 70600 75500 97500 113000
2022-09-20 21:00 10.12 38400 135000 (2019) 35700 (1991) 58900 37500 38200 40400 41600 50300 70600 75500 97500 113000
2022-09-20 20:00 10.13 38500 135000 (2019) 35700 (1991) 58900 37500 38200 40400 41600 50300 70600 75500 97500 113000
2022-09-20 19:00 10.13 38500 135000 (2019) 35700 (1991) 58900 37500 38200 40400 41600 50300 70600 75500 97500 113000
2022-09-20 18:00 10.13 38500 135000 (2019) 35700 (1991) 58900 37500 38200 40400 41600 50300 70600 75500 97500 113000
2022-09-20 17:00 10.13 38500 135000 (2019) 35700 (1991) 58900 37500 38200 40400 41600 50300 70600 75500 97500 113000
2022-09-20 16:00 10.10 38300 135000 (2019) 35700 (1991) 58900 37500 38200 40400 41600 50300 70600 75500 97500 113000
2022-09-20 15:00 10.12 38400 135000 (2019) 35700 (1991) 58900 37500 38200 40400 41600 50300 70600 75500 97500 113000
2022-09-20 14:00 10.08 38200 135000 (2019) 35700 (1991) 58900 37500 38200 40400 41600 50300 70600 75500 97500 113000
2022-09-20 13:00 10.05 38100 135000 (2019) 35700 (1991) 58900 37500 38200 40400 41600 50300 70600 75500 97500 113000
2022-09-20 12:00 10.08 38200 135000 (2019) 35700 (1991) 58900 37500 38200 40400 41600 50300 70600 75500 97500 113000
2022-09-20 11:00 10.05 38100 135000 (2019) 35700 (1991) 58900 37500 38200 40400 41600 50300 70600 75500 97500 113000
2022-09-20 10:00 10.12 38400 135000 (2019) 35700 (1991) 58900 37500 38200 40400 41600 50300 70600 75500 97500 113000
2022-09-20 09:00 10.11 38400 135000 (2019) 35700 (1991) 58900 37500 38200 40400 41600 50300 70600 75500 97500 113000
2022-09-20 08:00 10.10 38300 135000 (2019) 35700 (1991) 58900 37500 38200 40400 41600 50300 70600 75500 97500 113000
2022-09-20 07:00 10.11 38400 135000 (2019) 35700 (1991) 58900 37500 38200 40400 41600 50300 70600 75500 97500 113000
2022-09-20 06:00 10.11 38400 135000 (2019) 35700 (1991) 58900 37500 38200 40400 41600 50300 70600 75500 97500 113000
2022-09-20 05:00 10.10 38300 135000 (2019) 35700 (1991) 58900 37500 38200 40400 41600 50300 70600 75500 97500 113000
2022-09-20 04:00 10.10 38300 135000 (2019) 35700 (1991) 58900 37500 38200 40400 41600 50300 70600 75500 97500 113000
2022-09-20 03:00 10.10 38300 135000 (2019) 35700 (1991) 58900 37500 38200 40400 41600 50300 70600 75500 97500 113000
2022-09-20 02:00 10.09 38300 135000 (2019) 35700 (1991) 58900 37500 38200 40400 41600 50300 70600 75500 97500 113000
2022-09-20 01:00 10.09 38300 135000 (2019) 35700 (1991) 58900 37500 38200 40400 41600 50300 70600 75500 97500 113000
2022-09-20 00:00 10.08 38200 135000 (2019) 35700 (1991) 58900 37500 38200 40400 41600 50300 70600 75500 97500 113000
2022-09-19 23:00 10.08 38200 134000 (2019) 36100 (1990) 59000 37400 37600 39500 41100 51900 70000 74900 96700 108000
2022-09-19 22:00 10.08 38200 134000 (2019) 36100 (1990) 59000 37400 37600 39500 41100 51900 70000 74900 96700 108000
2022-09-19 21:00 10.07 38200 134000 (2019) 36100 (1990) 59000 37400 37600 39500 41100 51900 70000 74900 96700 108000
2022-09-19 20:00 10.07 38200 134000 (2019) 36100 (1990) 59000 37400 37600 39500 41100 51900 70000 74900 96700 108000
2022-09-19 19:00 10.07 38200 134000 (2019) 36100 (1990) 59000 37400 37600 39500 41100 51900 70000 74900 96700 108000
2022-09-19 18:00 10.07 38200 134000 (2019) 36100 (1990) 59000 37400 37600 39500 41100 51900 70000 74900 96700 108000
2022-09-19 17:00 10.08 38200 134000 (2019) 36100 (1990) 59000 37400 37600 39500 41100 51900 70000 74900 96700 108000
2022-09-19 16:00 10.08 38200 134000 (2019) 36100 (1990) 59000 37400 37600 39500 41100 51900 70000 74900 96700 108000
2022-09-19 15:00 10.07 38200 134000 (2019) 36100 (1990) 59000 37400 37600 39500 41100 51900 70000 74900 96700 108000
2022-09-19 14:00 10.06 38100 134000 (2019) 36100 (1990) 59000 37400 37600 39500 41100 51900 70000 74900 96700 108000
2022-09-19 13:00 10.06 38100 134000 (2019) 36100 (1990) 59000 37400 37600 39500 41100 51900 70000 74900 96700 108000
2022-09-19 12:00 9.98 37700 134000 (2019) 36100 (1990) 59000 37400 37600 39500 41100 51900 70000 74900 96700 108000
2022-09-19 11:00 10.04 38000 134000 (2019) 36100 (1990) 59000 37400 37600 39500 41100 51900 70000 74900 96700 108000
2022-09-19 10:00 10.03 38000 134000 (2019) 36100 (1990) 59000 37400 37600 39500 41100 51900 70000 74900 96700 108000
2022-09-19 09:00 10.03 38000 134000 (2019) 36100 (1990) 59000 37400 37600 39500 41100 51900 70000 74900 96700 108000
2022-09-19 08:00 10.03 38000 134000 (2019) 36100 (1990) 59000 37400 37600 39500 41100 51900 70000 74900 96700 108000
2022-09-19 07:00 10.02 37900 134000 (2019) 36100 (1990) 59000 37400 37600 39500 41100 51900 70000 74900 96700 108000
2022-09-19 06:00 10.02 37900 134000 (2019) 36100 (1990) 59000 37400 37600 39500 41100 51900 70000 74900 96700 108000
2022-09-19 05:00 10.01 37900 134000 (2019) 36100 (1990) 59000 37400 37600 39500 41100 51900 70000 74900 96700 108000
2022-09-19 04:00 10.01 37900 134000 (2019) 36100 (1990) 59000 37400 37600 39500 41100 51900 70000 74900 96700 108000
2022-09-19 03:00 1 37800 134000 (2019) 36100 (1990) 59000 37400 37600 39500 41100 51900 70000 74900 96700 108000
2022-09-19 02:00 1 37800 134000 (2019) 36100 (1990) 59000 37400 37600 39500 41100 51900 70000 74900 96700 108000
2022-09-19 01:00 9.99 37800 134000 (2019) 36100 (1990) 59000 37400 37600 39500 41100 51900 70000 74900 96700 108000
2022-09-19 00:00 9.99 37800 134000 (2019) 36100 (1990) 59000 37400 37600 39500 41100 51900 70000 74900 96700 108000
2022-09-18 23:00 9.98 37700 133000 (2019) 35200 (1959) 58400 36900 37600 39900 40300 52400 73700 78300 88000 98600
2022-09-18 22:00 9.98 37700 133000 (2019) 35200 (1959) 58400 36900 37600 39900 40300 52400 73700 78300 88000 98600
2022-09-18 21:00 9.98 37700 133000 (2019) 35200 (1959) 58400 36900 37600 39900 40300 52400 73700 78300 88000 98600
2022-09-18 20:00 9.98 37700 133000 (2019) 35200 (1959) 58400 36900 37600 39900 40300 52400 73700 78300 88000 98600
2022-09-18 19:00 9.98 37700 133000 (2019) 35200 (1959) 58400 36900 37600 39900 40300 52400 73700 78300 88000 98600
2022-09-18 18:00 9.89 37300 133000 (2019) 35200 (1959) 58400 36900 37600 39900 40300 52400 73700 78300 88000 98600
2022-09-18 17:00 9.93 37500 133000 (2019) 35200 (1959) 58400 36900 37600 39900 40300 52400 73700 78300 88000 98600
2022-09-18 16:00 9.94 37500 133000 (2019) 35200 (1959) 58400 36900 37600 39900 40300 52400 73700 78300 88000 98600
2022-09-18 15:00 9.93 37500 133000 (2019) 35200 (1959) 58400 36900 37600 39900 40300 52400 73700 78300 88000 98600
2022-09-18 14:00 9.95 37600 133000 (2019) 35200 (1959) 58400 36900 37600 39900 40300 52400 73700 78300 88000 98600
2022-09-18 13:00 9.96 37600 133000 (2019) 35200 (1959) 58400 36900 37600 39900 40300 52400 73700 78300 88000 98600
2022-09-18 12:00 9.94 37500 133000 (2019) 35200 (1959) 58400 36900 37600 39900 40300 52400 73700 78300 88000 98600
2022-09-18 11:00 9.91 37400 133000 (2019) 35200 (1959) 58400 36900 37600 39900 40300 52400 73700 78300 88000 98600
2022-09-18 10:00 9.95 37600 133000 (2019) 35200 (1959) 58400 36900 37600 39900 40300 52400 73700 78300 88000 98600
2022-09-18 09:00 9.97 37700 133000 (2019) 35200 (1959) 58400 36900 37600 39900 40300 52400 73700 78300 88000 98600
2022-09-18 08:00 9.93 37500 133000 (2019) 35200 (1959) 58400 36900 37600 39900 40300 52400 73700 78300 88000 98600
2022-09-18 07:00 9.97 37700 133000 (2019) 35200 (1959) 58400 36900 37600 39900 40300 52400 73700 78300 88000 98600
2022-09-18 06:00 9.95 37600 133000 (2019) 35200 (1959) 58400 36900 37600 39900 40300 52400 73700 78300 88000 98600
2022-09-18 05:00 9.98 37700 133000 (2019) 35200 (1959) 58400 36900 37600 39900 40300 52400 73700 78300 88000 98600
2022-09-18 04:00 9.98 37700 133000 (2019) 35200 (1959) 58400 36900 37600 39900 40300 52400 73700 78300 88000 98600
2022-09-18 03:00 9.98 37700 133000 (2019) 35200 (1959) 58400 36900 37600 39900 40300 52400 73700 78300 88000 98600
2022-09-18 02:00 9.98 37700 133000 (2019) 35200 (1959) 58400 36900 37600 39900 40300 52400 73700 78300 88000 98600
2022-09-18 01:00 9.95 37600 133000 (2019) 35200 (1959) 58400 36900 37600 39900 40300 52400 73700 78300 88000 98600
2022-09-18 00:00 9.96 37600 133000 (2019) 35200 (1959) 58400 36900 37600 39900 40300 52400 73700 78300 88000 98600

A total of 191 rows are displayed for years 1958 through 2021.